createdAt,value
2023-04-22T00:01:00.373Z,99535.72
2023-04-22T00:02:32.998Z,99544.38
2023-04-22T00:04:05.455Z,99543.56
2023-04-22T00:05:38.239Z,99541.84
2023-04-22T00:07:10.586Z,99544.47
2023-04-22T00:08:42.656Z,99542.84
2023-04-22T00:10:14.781Z,99542.00
2023-04-22T00:11:46.925Z,99545.66
2023-04-22T00:13:19.137Z,99540.72
2023-04-22T00:14:51.333Z,99544.38
2023-04-22T00:16:23.531Z,99546.19
2023-04-22T00:17:55.814Z,99545.38
2023-04-22T00:19:28.613Z,99544.53
2023-04-22T00:21:01.233Z,99541.94
2023-04-22T00:22:33.310Z,99540.22
2023-04-22T00:24:05.632Z,99542.81
2023-04-22T00:25:37.792Z,99536.75
2023-04-22T00:27:10.023Z,99541.16
2023-04-22T00:28:42.141Z,99544.59
2023-04-22T00:30:14.408Z,99541.19
2023-04-22T00:31:46.666Z,99541.31
2023-04-22T00:33:18.814Z,99537.91
2023-04-22T00:34:51.039Z,99541.47
2023-04-22T00:36:23.137Z,99539.75
2023-04-22T00:37:55.409Z,99535.53
2023-04-22T00:39:27.636Z,99534.84
2023-04-22T00:40:59.907Z,99533.19
2023-04-22T00:42:32.145Z,99536.75
2023-04-22T00:44:04.449Z,99537.69
2023-04-22T00:45:37.797Z,99542.94
2023-04-22T00:47:10.593Z,99548.25
2023-04-22T00:48:42.808Z,99544.00
2023-04-22T00:50:15.997Z,99542.25
2023-04-22T00:51:48.098Z,99544.06
2023-04-22T00:53:20.206Z,99539.78
2023-04-22T00:54:52.799Z,99540.72
2023-04-22T00:56:28.824Z,99543.34
2023-04-22T00:58:01.744Z,99539.09
2023-04-22T00:59:34.054Z,99538.31
2023-04-22T01:01:06.202Z,99533.16
2023-04-22T01:02:41.729Z,99537.50
2023-04-22T01:04:14.874Z,99539.25
2023-04-22T01:05:49.143Z,99532.44
2023-04-22T01:07:22.162Z,99541.97
2023-04-22T01:08:54.695Z,99541.13
2023-04-22T01:10:26.805Z,99540.44
2023-04-22T01:11:58.938Z,99537.06
2023-04-22T01:13:31.063Z,99551.06
2023-04-22T01:15:04.961Z,99553.03
2023-04-22T01:16:39.416Z,99542.78
2023-04-22T01:18:11.736Z,99550.56
2023-04-22T01:19:44.370Z,99543.63
2023-04-22T01:21:17.500Z,99535.88
2023-04-22T01:22:51.397Z,99543.47
2023-04-22T01:24:23.590Z,99546.09
2023-04-22T01:25:56.210Z,99548.72
2023-04-22T01:27:28.560Z,99549.63
2023-04-22T01:29:02.705Z,99544.47
2023-04-22T01:30:35.061Z,99547.88
2023-04-22T01:32:07.363Z,99546.13
2023-04-22T01:33:39.493Z,99547.84
2023-04-22T01:35:11.763Z,99552.13
2023-04-22T01:36:45.066Z,99564.25
2023-04-22T01:38:17.188Z,99561.28
2023-04-22T01:39:49.620Z,99575.47
2023-04-22T01:41:22.821Z,99562.84
2023-04-22T01:42:54.948Z,99566.25
2023-04-22T01:44:27.378Z,99565.31
2023-04-22T01:46:02.452Z,99571.13
2023-04-22T01:47:34.585Z,99568.59
2023-04-22T01:49:06.728Z,99566.00
2023-04-22T01:50:38.808Z,99572.94
2023-04-22T01:52:11.060Z,99566.00
2023-04-22T01:53:43.184Z,99580.63
2023-04-22T01:55:15.604Z,99573.69
2023-04-22T01:56:54.886Z,99570.16
2023-04-22T01:58:30.204Z,99578.81
2023-04-22T02:00:02.707Z,99574.50
2023-04-22T02:01:34.880Z,99576.25
2023-04-22T02:03:07.213Z,99577.88
2023-04-22T02:04:39.645Z,99574.47
2023-04-22T02:06:12.018Z,99580.47
2023-04-22T02:07:44.184Z,99577.88
2023-04-22T02:09:16.287Z,99581.34
2023-04-22T02:10:48.346Z,99574.53
2023-04-22T02:12:20.514Z,99572.97
2023-04-22T02:13:52.607Z,99570.47
2023-04-22T02:15:24.668Z,99568.88
2023-04-22T02:16:56.752Z,99571.53
2023-04-22T02:18:28.872Z,99576.75
2023-04-22T02:20:00.971Z,99569.09
2023-04-22T02:21:33.299Z,99574.38
2023-04-22T02:23:05.822Z,99563.34
2023-04-22T02:24:37.960Z,99568.63
2023-04-22T02:26:10.544Z,99563.56
2023-04-22T02:27:45.116Z,99567.91
2023-04-22T02:29:17.634Z,99564.69
2023-04-22T02:30:49.686Z,99571.72
2023-04-22T02:32:21.825Z,99573.53
2023-04-22T02:33:53.935Z,99571.00
2023-04-22T02:35:26.096Z,99565.94
2023-04-22T02:36:58.196Z,99570.28
2023-04-22T02:38:30.319Z,99572.13
2023-04-22T02:40:02.589Z,99581.72
2023-04-22T02:41:34.718Z,99577.47
2023-04-22T02:43:06.857Z,99585.22
2023-04-22T02:44:39.076Z,99579.16
2023-04-22T02:46:13.566Z,99571.38
2023-04-22T02:47:45.682Z,99576.56
2023-04-22T02:49:17.873Z,99566.31
2023-04-22T02:50:50.036Z,99576.63
2023-04-22T02:52:22.254Z,99589.56
2023-04-22T02:53:54.470Z,99578.41
2023-04-22T02:55:26.629Z,99575.78
2023-04-22T02:56:58.843Z,99583.53
2023-04-22T02:58:31.099Z,99582.66
2023-04-22T03:00:03.355Z,99581.88
2023-04-22T03:01:35.521Z,99589.75
2023-04-22T03:03:07.818Z,99587.25
2023-04-22T03:04:40.085Z,99576.97
2023-04-22T03:06:12.295Z,99580.50
2023-04-22T03:07:45.044Z,99581.44
2023-04-22T03:09:17.837Z,99584.94
2023-04-22T03:10:50.017Z,99591.91
2023-04-22T03:12:22.574Z,99592.84
2023-04-22T03:13:56.975Z,99607.50
2023-04-22T03:15:32.154Z,99605.75
2023-04-22T03:17:04.315Z,99597.16
2023-04-22T03:18:36.624Z,99591.06
2023-04-22T03:20:09.401Z,99602.19
2023-04-22T03:21:41.522Z,99596.22
2023-04-22T03:23:13.588Z,99597.09
2023-04-22T03:24:48.009Z,99600.50
2023-04-22T03:26:20.228Z,99602.28
2023-04-22T03:27:52.337Z,99599.69
2023-04-22T03:29:24.443Z,99592.81
2023-04-22T03:30:56.681Z,99592.03
2023-04-22T03:32:28.853Z,99591.09
2023-04-22T03:34:01.761Z,99596.25
2023-04-22T03:35:33.927Z,99601.41
2023-04-22T03:37:06.108Z,99600.53
2023-04-22T03:38:38.146Z,99589.34
2023-04-22T03:40:12.127Z,99590.19
2023-04-22T03:41:45.817Z,99604.00
2023-04-22T03:43:17.931Z,99604.09
2023-04-22T03:44:50.050Z,99609.31
2023-04-22T03:46:22.377Z,99611.13
2023-04-22T03:47:54.638Z,99611.16
2023-04-22T03:49:26.808Z,99615.53
2023-04-22T03:50:59.088Z,99613.81
2023-04-22T03:52:31.278Z,99614.69
2023-04-22T03:54:03.474Z,99617.28
2023-04-22T03:55:35.710Z,99624.19
2023-04-22T03:57:07.884Z,99625.91
2023-04-22T03:58:40.069Z,99630.16
2023-04-22T04:00:12.842Z,99633.53
2023-04-22T04:01:47.217Z,99630.03
2023-04-22T04:03:19.465Z,99630.03
2023-04-22T04:04:52.061Z,99635.13
2023-04-22T04:06:24.536Z,99638.50
2023-04-22T04:07:57.022Z,99635.09
2023-04-22T04:09:29.182Z,99632.53
2023-04-22T04:11:01.339Z,99629.94
2023-04-22T04:12:33.556Z,99635.97
2023-04-22T04:14:05.848Z,99637.69
2023-04-22T04:15:38.098Z,99641.91
2023-04-22T04:17:10.221Z,99637.56
2023-04-22T04:18:42.580Z,99648.72
2023-04-22T04:20:17.796Z,99641.03
2023-04-22T04:21:49.988Z,99646.19
2023-04-22T04:23:22.114Z,99647.06
2023-04-22T04:24:56.326Z,99644.44
2023-04-22T04:26:28.454Z,99646.97
2023-04-22T04:28:02.016Z,99645.22
2023-04-22T04:29:34.101Z,99646.97
2023-04-22T04:31:06.300Z,99652.91
2023-04-22T04:32:38.447Z,99651.97
2023-04-22T04:34:10.744Z,99641.56
2023-04-22T04:35:43.791Z,99640.63
2023-04-22T04:37:17.248Z,99640.56
2023-04-22T04:38:49.304Z,99639.53
2023-04-22T04:40:22.515Z,99643.88
2023-04-22T04:41:59.073Z,99652.41
2023-04-22T04:43:31.378Z,99644.66
2023-04-22T04:45:03.959Z,99648.03
2023-04-22T04:46:38.250Z,99648.81
2023-04-22T04:48:10.469Z,99661.66
2023-04-22T04:49:44.100Z,99659.09
2023-04-22T04:51:18.227Z,99659.06
2023-04-22T04:52:53.008Z,99665.91
2023-04-22T04:54:25.250Z,99668.44
2023-04-22T04:55:57.406Z,99672.72
2023-04-22T04:57:29.522Z,99676.06
2023-04-22T04:59:01.654Z,99678.50
2023-04-22T05:00:33.848Z,99682.66
2023-04-22T05:02:06.214Z,99673.06
2023-04-22T05:03:38.687Z,99679.81
2023-04-22T05:05:11.044Z,99677.94
2023-04-22T05:06:43.356Z,99678.66
2023-04-22T05:08:15.639Z,99684.53
2023-04-22T05:09:47.826Z,99674.84
2023-04-22T05:11:19.934Z,99679.81
2023-04-22T05:12:52.243Z,99674.50
2023-04-22T05:14:24.426Z,99676.13
2023-04-22T05:15:56.759Z,99674.25
2023-04-22T05:17:29.127Z,99671.56
2023-04-22T05:19:01.968Z,99666.25
2023-04-22T05:20:36.163Z,99667.81
2023-04-22T05:22:08.546Z,99664.13
2023-04-22T05:23:40.898Z,99662.22
2023-04-22T05:25:13.056Z,99658.56
2023-04-22T05:26:45.232Z,99664.44
2023-04-22T05:28:17.320Z,99660.84
2023-04-22T05:29:49.500Z,99653.75
2023-04-22T05:31:21.899Z,99668.19
2023-04-22T05:32:57.168Z,99669.75
2023-04-22T05:34:29.364Z,99673.06
2023-04-22T05:36:01.554Z,99669.50
2023-04-22T05:37:33.775Z,99672.78
2023-04-22T05:39:06.513Z,99671.78
2023-04-22T05:40:38.677Z,99667.31
2023-04-22T05:42:10.869Z,99668.00
2023-04-22T05:43:43.034Z,99666.06
2023-04-22T05:45:16.165Z,99676.22
2023-04-22T05:46:48.417Z,99676.81
2023-04-22T05:48:20.576Z,99674.81
2023-04-22T05:49:55.212Z,99677.09
2023-04-22T05:51:27.362Z,99676.94
2023-04-22T05:52:59.541Z,99673.25
2023-04-22T05:54:31.786Z,99673.88
2023-04-22T05:56:03.909Z,99671.84
2023-04-22T05:57:36.105Z,99666.34
2023-04-22T05:59:08.312Z,99670.38
2023-04-22T06:00:40.509Z,99671.03
2023-04-22T06:02:12.989Z,99667.34
2023-04-22T06:03:45.469Z,99675.78
2023-04-22T06:05:17.873Z,99672.19
2023-04-22T06:06:50.373Z,99669.41
2023-04-22T06:08:22.573Z,99672.56
2023-04-22T06:10:03.806Z,99673.31
2023-04-22T06:11:40.898Z,99677.63
2023-04-22T06:13:13.080Z,99674.19
2023-04-22T06:14:45.150Z,99687.91
2023-04-22T06:16:17.286Z,99686.88
2023-04-22T06:17:49.552Z,99687.69
2023-04-22T06:19:21.884Z,99683.25
2023-04-22T06:20:54.306Z,99679.66
2023-04-22T06:22:26.414Z,99688.13
2023-04-22T06:23:58.859Z,99684.53
2023-04-22T06:25:31.124Z,99688.84
2023-04-22T06:27:09.210Z,99693.91
2023-04-22T06:28:41.430Z,99685.97
2023-04-22T06:30:13.825Z,99689.47
2023-04-22T06:31:46.183Z,99694.47
2023-04-22T06:33:18.358Z,99696.16
2023-04-22T06:34:50.484Z,99696.91
2023-04-22T06:36:22.745Z,99701.09
2023-04-22T06:37:54.866Z,99701.94
2023-04-22T06:39:26.984Z,99706.28
2023-04-22T06:41:01.872Z,99704.91
2023-04-22T06:42:33.973Z,99717.97
2023-04-22T06:44:06.095Z,99713.16
2023-04-22T06:45:38.308Z,99716.53
2023-04-22T06:47:10.421Z,99724.34
2023-04-22T06:48:43.104Z,99727.88
2023-04-22T06:50:15.406Z,99720.91
2023-04-22T06:51:47.626Z,99723.53
2023-04-22T06:53:19.747Z,99724.34
2023-04-22T06:54:51.892Z,99727.75
2023-04-22T06:56:23.988Z,99726.16
2023-04-22T06:57:57.113Z,99731.34
2023-04-22T06:59:29.238Z,99738.34
2023-04-22T07:01:01.336Z,99740.94
2023-04-22T07:02:33.559Z,99742.91
2023-04-22T07:04:05.853Z,99745.47
2023-04-22T07:05:39.686Z,99745.53
2023-04-22T07:07:12.110Z,99744.69
2023-04-22T07:08:44.360Z,99744.63
2023-04-22T07:10:16.570Z,99748.94
2023-04-22T07:11:48.828Z,99743.84
2023-04-22T07:13:21.012Z,99751.00
2023-04-22T07:14:53.073Z,99756.41
2023-04-22T07:16:25.713Z,99762.75
2023-04-22T07:17:57.842Z,99760.00
2023-04-22T07:19:31.592Z,99764.13
2023-04-22T07:21:05.278Z,99762.19
2023-04-22T07:22:37.454Z,99761.13
2023-04-22T07:24:12.394Z,99756.72
2023-04-22T07:25:44.556Z,99755.75
2023-04-22T07:27:16.901Z,99765.47
2023-04-22T07:28:49.061Z,99762.94
2023-04-22T07:30:21.163Z,99758.50
2023-04-22T07:31:53.441Z,99766.44
2023-04-22T07:33:25.722Z,99768.47
2023-04-22T07:34:57.862Z,99775.38
2023-04-22T07:36:30.154Z,99780.69
2023-04-22T07:38:02.245Z,99783.63
2023-04-22T07:39:34.368Z,99775.75
2023-04-22T07:41:06.473Z,99783.44
2023-04-22T07:42:39.964Z,99786.81
2023-04-22T07:44:16.794Z,99785.72
2023-04-22T07:45:49.228Z,99791.91
2023-04-22T07:47:21.720Z,99784.25
2023-04-22T07:48:53.882Z,99787.09
2023-04-22T07:50:26.131Z,99797.53
2023-04-22T07:51:58.246Z,99793.31
2023-04-22T07:53:30.352Z,99795.13
2023-04-22T07:55:02.663Z,99795.13
2023-04-22T07:56:35.149Z,99800.19
2023-04-22T07:58:07.389Z,99805.34
2023-04-22T07:59:39.949Z,99809.78
2023-04-22T08:01:12.337Z,99813.16
2023-04-22T08:02:44.718Z,99807.97
2023-04-22T08:04:17.981Z,99809.63
2023-04-22T08:05:50.326Z,99811.34
2023-04-22T08:08:57.783Z,99825.13
2023-04-22T08:10:29.915Z,99813.94
2023-04-22T08:12:03.235Z,99819.03
2023-04-22T08:13:35.384Z,99817.31
2023-04-22T08:15:07.934Z,99818.13
2023-04-22T08:16:40.576Z,99817.31
2023-04-22T08:18:12.683Z,99819.16
2023-04-22T08:19:45.889Z,99823.47
2023-04-22T08:21:18.137Z,99821.81
2023-04-22T08:22:51.962Z,99821.81
2023-04-22T08:24:24.196Z,99828.72
2023-04-22T08:25:56.427Z,99820.97
2023-04-22T08:27:28.654Z,99824.31
2023-04-22T08:29:01.518Z,99824.22
2023-04-22T08:30:33.683Z,99822.56
2023-04-22T08:32:05.861Z,99816.56
2023-04-22T08:33:38.028Z,99812.28
2023-04-22T08:35:10.357Z,99806.28
2023-04-22T08:36:42.944Z,99808.09
2023-04-22T08:38:15.192Z,99809.13
2023-04-22T08:39:47.345Z,99806.56
2023-04-22T08:41:19.845Z,99813.53
2023-04-22T08:42:52.642Z,99814.41
2023-04-22T08:44:25.073Z,99818.69
2023-04-22T08:45:57.418Z,99817.81
2023-04-22T08:47:29.767Z,99816.94
2023-04-22T08:49:04.953Z,99821.22
2023-04-22T08:50:39.838Z,99821.09
2023-04-22T08:52:13.195Z,99821.09
2023-04-22T08:53:45.333Z,99819.97
2023-04-22T08:55:17.533Z,99815.69
2023-04-22T08:56:51.219Z,99812.03
2023-04-22T08:58:24.070Z,99809.53
2023-04-22T08:59:57.214Z,99811.91
2023-04-22T09:01:32.110Z,99801.50
2023-04-22T09:03:06.798Z,99812.59
2023-04-22T09:04:39.078Z,99807.44
2023-04-22T09:06:12.065Z,99803.72
2023-04-22T09:07:44.598Z,99799.31
2023-04-22T09:09:16.696Z,99798.25
2023-04-22T09:10:49.110Z,99804.91
2023-04-22T09:12:21.732Z,99795.13
2023-04-22T09:13:55.245Z,99800.03
2023-04-22T09:15:28.163Z,99791.19
2023-04-22T09:17:00.374Z,99797.03
2023-04-22T09:18:47.867Z,99798.41
2023-04-22T09:20:20.538Z,99795.72
2023-04-22T09:21:54.439Z,99796.47
2023-04-22T09:23:27.260Z,99789.34
2023-04-22T09:24:59.422Z,99789.50
2023-04-22T09:26:31.802Z,99804.28
2023-04-22T09:28:04.010Z,99795.56
2023-04-22T09:29:36.199Z,99799.03
2023-04-22T09:31:14.706Z,99789.94
2023-04-22T09:32:55.268Z,99787.19
2023-04-22T09:34:28.327Z,99783.53
2023-04-22T09:36:00.528Z,99783.53
2023-04-22T09:37:46.635Z,99779.13
2023-04-22T09:39:21.390Z,99785.13
2023-04-22T09:40:53.499Z,99784.13
2023-04-22T09:42:25.635Z,99785.94
2023-04-22T09:43:58.846Z,99783.16
2023-04-22T09:45:33.314Z,99780.72
2023-04-22T09:47:05.468Z,99779.75
2023-04-22T09:48:43.879Z,99780.25
2023-04-22T09:50:15.967Z,99779.25
2023-04-22T09:51:49.907Z,99782.44
2023-04-22T09:53:22.848Z,99782.25
2023-04-22T09:54:55.219Z,99782.25
2023-04-22T09:56:54.094Z,99781.06
2023-04-22T09:58:28.397Z,99781.06
2023-04-22T10:00:00.690Z,99775.69
2023-04-22T10:01:37.996Z,99772.78
2023-04-22T10:03:11.228Z,99771.97
2023-04-22T10:04:43.522Z,99772.41
2023-04-22T10:06:15.707Z,99774.28
2023-04-22T10:07:48.070Z,99773.34
2023-04-22T10:09:22.700Z,99766.78
2023-04-22T10:10:54.842Z,99766.56
2023-04-22T10:12:35.204Z,99767.31
2023-04-22T10:14:11.022Z,99760.06
2023-04-22T10:15:46.641Z,99756.22
2023-04-22T10:17:19.581Z,99758.63
2023-04-22T10:18:52.895Z,99761.00
2023-04-22T10:20:26.384Z,99750.13
2023-04-22T10:21:59.263Z,99749.53
2023-04-22T10:23:34.415Z,99754.56
2023-04-22T10:25:06.785Z,99756.16
2023-04-22T10:26:40.280Z,99747.19
2023-04-22T10:28:13.174Z,99739.38
2023-04-22T10:29:45.365Z,99742.13
2023-04-22T10:31:24.384Z,99738.56
2023-04-22T10:32:56.714Z,99740.34
2023-04-22T10:34:32.828Z,99731.66
2023-04-22T10:36:17.028Z,99738.56
2023-04-22T10:37:49.800Z,99731.53
2023-04-22T10:39:22.522Z,99725.94
2023-04-22T10:41:01.109Z,99734.31
2023-04-22T10:42:33.300Z,99721.19
2023-04-22T10:44:08.943Z,99729.09
2023-04-22T10:45:41.069Z,99726.06
2023-04-22T10:47:13.151Z,99720.38
2023-04-22T10:48:51.144Z,99710.91
2023-04-22T10:50:28.068Z,99718.31
2023-04-22T10:52:08.213Z,99714.59
2023-04-22T10:53:43.123Z,99712.47
2023-04-22T10:55:15.295Z,99716.44
2023-04-22T10:57:09.344Z,99707.13
2023-04-22T10:58:41.462Z,99705.47
2023-04-22T11:00:23.997Z,99700.13
2023-04-22T11:01:56.393Z,99700.19
2023-04-22T11:03:30.341Z,99701.03
2023-04-22T11:05:25.329Z,99708.50
2023-04-22T11:07:31.122Z,99705.69
2023-04-22T11:09:11.150Z,99705.09
2023-04-22T11:10:45.552Z,99693.25
2023-04-22T11:12:44.352Z,99699.28
2023-04-22T11:14:16.506Z,99702.97
2023-04-22T11:15:55.482Z,99700.06
2023-04-22T11:17:28.209Z,99693.75
2023-04-22T11:19:00.535Z,99691.13
2023-04-22T11:20:32.833Z,99694.38
2023-04-22T11:22:05.701Z,99702.25
2023-04-22T11:23:37.906Z,99688.19
2023-04-22T11:25:13.336Z,99690.50
2023-04-22T11:26:46.685Z,99698.19
2023-04-22T11:28:21.676Z,99694.88
2023-04-22T11:30:17.130Z,99692.72
2023-04-22T11:31:49.725Z,99692.81
2023-04-22T11:33:22.038Z,99692.09
2023-04-22T11:34:54.265Z,99693.50
2023-04-22T11:36:26.881Z,99686.25
2023-04-22T11:38:02.073Z,99683.84
2023-04-22T11:39:43.643Z,99680.66
2023-04-22T11:41:23.622Z,99684.53
2023-04-22T11:42:57.002Z,99688.47
2023-04-22T11:44:28.916Z,99684.94
2023-04-22T11:46:01.148Z,99686.78
2023-04-22T11:47:35.078Z,99682.41
2023-04-22T11:49:17.008Z,99682.16
2023-04-22T11:50:49.324Z,99680.63
2023-04-22T11:52:21.519Z,99677.69
2023-04-22T11:53:53.695Z,99676.50
2023-04-22T11:55:36.858Z,99681.13
2023-04-22T11:57:12.043Z,99677.50
2023-04-22T11:58:44.132Z,99685.81
2023-04-22T12:00:18.038Z,99677.97
2023-04-22T12:01:50.197Z,99679.19
2023-04-22T12:03:26.036Z,99673.31
2023-04-22T12:04:59.359Z,99681.09
2023-04-22T12:06:32.749Z,99677.63
2023-04-22T12:08:07.146Z,99679.13
2023-04-22T12:09:40.159Z,99676.50
2023-04-22T12:11:12.841Z,99673.13
2023-04-22T12:12:44.965Z,99672.50
2023-04-22T12:14:17.058Z,99665.84
2023-04-22T12:15:50.210Z,99670.44
2023-04-22T12:17:25.934Z,99671.81
2023-04-22T12:18:58.031Z,99671.03
2023-04-22T12:20:34.783Z,99670.78
2023-04-22T12:22:06.934Z,99676.88
2023-04-22T12:23:46.365Z,99670.44
2023-04-22T12:25:19.916Z,99670.25
2023-04-22T12:26:51.993Z,99673.06
2023-04-22T12:28:24.288Z,99667.38
2023-04-22T12:29:57.129Z,99666.88
2023-04-22T12:31:29.332Z,99669.34
2023-04-22T12:33:01.576Z,99657.31
2023-04-22T12:34:33.740Z,99662.44
2023-04-22T12:36:06.560Z,99666.78
2023-04-22T12:37:38.949Z,99654.16
2023-04-22T12:39:11.129Z,99667.03
2023-04-22T12:40:43.270Z,99657.97
2023-04-22T12:42:15.456Z,99655.91
2023-04-22T12:43:48.133Z,99649.63
2023-04-22T12:45:20.348Z,99648.34
2023-04-22T12:46:52.622Z,99649.63
2023-04-22T12:48:24.895Z,99643.34
2023-04-22T12:49:58.927Z,99640.91
2023-04-22T12:51:31.342Z,99637.69
2023-04-22T12:53:03.841Z,99643.69
2023-04-22T12:54:36.104Z,99640.81
2023-04-22T12:56:08.338Z,99640.22
2023-04-22T12:57:40.477Z,99637.47
2023-04-22T12:59:13.309Z,99634.16
2023-04-22T13:00:45.452Z,99632.97
2023-04-22T13:02:17.702Z,99637.31
2023-04-22T13:03:53.801Z,99632.28
2023-04-22T13:05:26.339Z,99631.88
2023-04-22T13:06:58.517Z,99635.25
2023-04-22T13:08:31.019Z,99638.56
2023-04-22T13:10:03.131Z,99638.50
2023-04-22T13:11:35.361Z,99629.78
2023-04-22T13:14:43.978Z,99620.03
2023-04-22T13:16:16.282Z,99623.72
2023-04-22T13:17:50.293Z,99620.75
2023-04-22T13:19:26.050Z,99628.41
2023-04-22T13:20:58.277Z,99621.91
2023-04-22T13:22:30.718Z,99616.34
2023-04-22T13:24:02.892Z,99620.59
2023-04-22T13:25:34.976Z,99616.66
2023-04-22T13:27:09.812Z,99624.75
2023-04-22T13:28:42.354Z,99618.38
2023-04-22T13:30:14.928Z,99619.84
2023-04-22T13:31:47.320Z,99618.06
2023-04-22T13:33:19.482Z,99620.94
2023-04-22T13:34:51.762Z,99611.28
2023-04-22T13:36:23.982Z,99619.75
2023-04-22T13:37:56.631Z,99618.06
2023-04-22T13:39:28.912Z,99613.41
2023-04-22T13:41:02.716Z,99620.94
2023-04-22T13:42:36.005Z,99615.28
2023-04-22T13:44:08.216Z,99624.06
2023-04-22T13:45:41.197Z,99620.31
2023-04-22T13:47:13.615Z,99623.31
2023-04-22T13:48:45.782Z,99622.91
2023-04-22T13:50:18.017Z,99627.22
2023-04-22T13:51:50.157Z,99625.44
2023-04-22T13:53:22.437Z,99628.91
2023-04-22T13:54:54.788Z,99629.41
2023-04-22T13:56:27.180Z,99621.72
2023-04-22T13:57:59.301Z,99621.91
2023-04-22T13:59:31.765Z,99630.22
2023-04-22T14:01:04.644Z,99625.28
2023-04-22T14:02:36.860Z,99626.34
2023-04-22T14:04:09.047Z,99620.63
2023-04-22T14:05:41.484Z,99627.03
2023-04-22T14:07:13.820Z,99629.25
2023-04-22T14:08:46.143Z,99627.59
2023-04-22T14:10:20.793Z,99625.50
2023-04-22T14:11:52.955Z,99630.84
2023-04-22T14:13:25.155Z,99624.00
2023-04-22T14:14:57.284Z,99624.72
2023-04-22T14:16:29.494Z,99631.19
2023-04-22T14:18:01.924Z,99624.50
2023-04-22T14:19:34.528Z,99636.16
2023-04-22T14:21:09.545Z,99632.78
2023-04-22T14:22:41.657Z,99637.50
2023-04-22T14:24:13.777Z,99625.56
2023-04-22T14:25:46.936Z,99622.69
2023-04-22T14:27:19.055Z,99627.75
2023-04-22T14:28:51.201Z,99625.88
2023-04-22T14:30:23.522Z,99620.38
2023-04-22T14:31:56.278Z,99622.13
2023-04-22T14:33:28.971Z,99620.53
2023-04-22T14:35:01.071Z,99624.72
2023-04-22T14:36:33.246Z,99621.06
2023-04-22T14:38:08.576Z,99621.91
2023-04-22T14:39:40.873Z,99629.69
2023-04-22T14:41:13.492Z,99632.81
2023-04-22T14:42:48.827Z,99633.56
2023-04-22T14:44:20.954Z,99630.75
2023-04-22T14:45:53.089Z,99634.50
2023-04-22T14:47:25.347Z,99632.50
2023-04-22T14:48:57.544Z,99635.03
2023-04-22T14:50:29.804Z,99633.38
2023-04-22T14:52:02.003Z,99632.69
2023-04-22T14:53:34.479Z,99638.38
2023-04-22T14:55:19.429Z,99631.78
2023-04-22T14:56:58.979Z,99634.28
2023-04-22T14:58:31.959Z,99631.59
2023-04-22T15:00:08.383Z,99639.94
2023-04-22T15:01:43.412Z,99635.25
2023-04-22T15:03:15.985Z,99645.28
2023-04-22T15:04:48.351Z,99644.34
2023-04-22T15:06:20.662Z,99645.75
2023-04-22T15:07:52.932Z,99640.69
2023-04-22T15:09:25.035Z,99646.72
2023-04-22T15:10:57.406Z,99645.47
2023-04-22T15:12:29.649Z,99646.28
2023-04-22T15:14:01.874Z,99646.22
2023-04-22T15:15:34.043Z,99647.53
2023-04-22T15:17:06.498Z,99649.75
2023-04-22T15:18:38.839Z,99654.38
2023-04-22T15:20:12.289Z,99650.28
2023-04-22T15:21:44.438Z,99656.47
2023-04-22T15:23:16.698Z,99663.66
2023-04-22T15:24:48.875Z,99667.06
2023-04-22T15:26:21.220Z,99661.16
2023-04-22T15:27:56.859Z,99661.72
2023-04-22T15:29:29.509Z,99660.97
2023-04-22T15:31:01.851Z,99666.13
2023-04-22T15:32:34.378Z,99664.53
2023-04-22T15:34:06.936Z,99663.06
2023-04-22T15:35:39.133Z,99671.59
2023-04-22T15:37:13.460Z,99679.94
2023-04-22T15:38:45.765Z,99686.19
2023-04-22T15:40:17.994Z,99685.72
2023-04-22T15:41:50.188Z,99688.69
2023-04-22T15:43:22.266Z,99691.13
2023-04-22T15:44:54.330Z,99693.41
2023-04-22T15:46:28.942Z,99689.88
2023-04-22T15:48:01.128Z,99692.00
2023-04-22T15:49:33.248Z,99693.34
2023-04-22T15:51:05.382Z,99691.34
2023-04-22T15:52:38.271Z,99700.41
2023-04-22T15:54:10.814Z,99697.78
2023-04-22T15:55:42.926Z,99691.00
2023-04-22T20:33:01.097Z,99889.19
2023-04-22T20:34:34.107Z,99890.91
2023-04-22T20:36:07.666Z,99889.25
2023-04-22T20:37:40.366Z,99894.47
2023-04-22T20:39:14.545Z,99885.03
2023-04-22T20:40:47.341Z,99892.84
2023-04-22T20:42:20.717Z,99882.56
2023-04-22T20:43:53.247Z,99884.31
2023-04-22T20:45:26.353Z,99889.53
2023-04-22T20:46:59.288Z,99884.44
2023-04-22T20:48:31.678Z,99889.66
2023-04-22T20:50:04.668Z,99883.69
2023-04-22T20:51:36.873Z,99891.44
2023-04-22T20:53:08.991Z,99894.88
2023-04-22T20:54:41.562Z,99894.81
2023-04-22T20:56:13.795Z,99886.19
2023-04-22T20:57:45.972Z,99889.66
2023-04-22T20:59:18.072Z,99893.06
2023-04-22T21:00:50.262Z,99889.66
2023-04-22T21:02:22.773Z,99895.69
2023-04-22T21:03:56.185Z,99893.97
2023-04-22T21:05:28.329Z,99883.63
2023-04-22T21:07:04.406Z,99893.16
2023-04-22T21:08:39.588Z,99892.31
2023-04-22T21:10:12.116Z,99894.97
2023-04-22T21:11:44.439Z,99894.13
2023-04-22T21:13:17.414Z,99895.00
2023-04-22T21:14:49.970Z,99892.44
2023-04-22T21:16:30.223Z,99889.00
2023-04-22T21:18:03.540Z,99896.75
2023-04-22T21:19:35.967Z,99900.22
2023-04-22T21:21:08.569Z,99897.63
2023-04-22T21:22:43.929Z,99889.91
2023-04-22T21:24:16.244Z,99895.09
2023-04-22T21:25:49.061Z,99900.31
2023-04-22T21:27:22.452Z,99892.56
2023-04-22T21:28:54.677Z,99899.47
2023-04-22T21:30:26.967Z,99890.94
2023-04-22T21:32:08.597Z,99889.19
2023-04-22T21:33:41.727Z,99884.06
2023-04-22T21:35:13.982Z,99889.22
2023-04-22T21:36:46.084Z,99889.28
2023-04-22T21:38:20.101Z,99890.16
2023-04-22T21:39:52.677Z,99893.63
2023-04-22T21:41:24.828Z,99901.41
2023-04-22T21:42:56.975Z,99890.22
2023-04-22T21:44:29.068Z,99894.53
2023-04-22T21:46:01.337Z,99902.28
2023-04-22T21:47:33.569Z,99899.69
2023-04-22T21:49:05.720Z,99897.13
2023-04-22T21:50:37.850Z,99891.97
2023-04-22T21:52:10.111Z,99889.41
2023-04-22T21:53:42.552Z,99897.16
2023-04-22T21:55:14.676Z,99892.88
2023-04-22T21:56:46.726Z,99892.88
2023-04-22T21:58:18.900Z,99897.16
2023-04-22T21:59:51.163Z,99896.34
2023-04-22T22:01:23.462Z,99898.91
2023-04-22T22:02:55.722Z,99900.66
2023-04-22T22:04:28.121Z,99893.78
2023-04-22T22:06:00.538Z,99897.25
2023-04-22T22:07:32.626Z,99900.72
2023-04-22T22:09:04.914Z,99900.69
2023-04-22T22:10:37.027Z,99905.00
2023-04-22T22:12:10.996Z,99905.88
2023-04-22T22:13:43.504Z,99907.63
2023-04-22T22:15:19.538Z,99904.22
2023-04-22T22:16:54.189Z,99902.50
2023-04-22T22:18:26.484Z,99902.50
2023-04-22T22:19:58.646Z,99901.69
2023-04-22T22:21:32.015Z,99901.69
2023-04-22T22:23:04.109Z,99899.94
2023-04-22T22:24:36.246Z,99903.34
2023-04-22T22:26:08.706Z,99898.22
2023-04-22T22:27:42.120Z,99898.22
2023-04-22T22:29:17.162Z,99893.06
2023-04-22T22:30:49.461Z,99892.22
2023-04-22T22:32:21.769Z,99897.38
2023-04-22T22:33:53.897Z,99892.22
2023-04-22T22:35:26.016Z,99890.50
2023-04-22T22:36:58.249Z,99889.63
2023-04-22T22:38:30.389Z,99891.34
2023-04-22T22:40:02.558Z,99899.06
2023-04-22T22:41:34.724Z,99892.22
2023-04-22T22:43:06.929Z,99897.44
2023-04-22T22:44:39.189Z,99890.56
2023-04-22T22:46:11.433Z,99884.56
2023-04-22T22:47:43.613Z,99890.59
2023-04-22T22:49:15.730Z,99889.72
2023-04-22T22:50:49.343Z,99887.16
2023-04-22T22:52:21.455Z,99885.41
2023-04-22T22:53:53.612Z,99894.00